Řízení letového provozu České republiky
Letiste: LKKV Aktualizace: 26.05.2019 23:09:25  UTC
 METAR LKKV 26.05. 23:00 ...
METAR LKKV 262300Z 00000KT CAVOK 09/06 Q1013 RMK REG QNH 1009=
 TAF LKKV 26.05. 23:00 ...
TAF LKKV 262300Z 2700/2806 22004KT CAVOK      BECMG 2708/2710 28012KT 9999 SCT040      BECMG 2715/2717 19004KT      BECMG 2722/2801 7000 -RA BKN030      BECMG 2803/2806 33012KT 3000 RA SCT013 BKN020=